Time;durP1;ratioP1;P1;durP2;ratioP2;P2;SDS_P1;SDS_P2;PMS_P1;PMS_P2;Temp;Humidity;BMP_temperature;BMP_pressure;BME280_temperature;BME280_humidity;BME280_pressure;Samples;Min_cycle;Max_cycle;Signal;HPM_P1;HPM_P2
2022/06/16 00:01:21;;;;;;;6.05;4.53;;;;;;;15.75;64.72;95233.59;5109779;28;20479;-73
2022/06/16 00:03:47;;;;;;;5.10;4.13;;;;;;;15.72;64.92;95239.13;5109295;28;20451;-73
2022/06/16 00:06:12;;;;;;;5.30;4.80;;;;;;;15.62;64.53;95213.78;5110921;28;20027;-73
2022/06/16 00:08:38;;;;;;;7.63;4.28;;;;;;;15.75;64.43;95239.66;5109328;28;20035;-73
2022/06/16 00:11:19;;;;;;;7.68;4.50;;;;;;;15.70;64.55;95226.19;5109584;28;20031;-73
2022/06/16 00:13:45;;;;;;;10.63;4.90;;;;;;;15.72;64.48;95239.13;5110136;28;20027;-73
2022/06/16 00:16:11;;;;;;;5.88;4.85;;;;;;;15.63;64.77;95228.56;5092694;28;20469;-73
2022/06/16 00:18:36;;;;;;;7.00;5.05;;;;;;;15.65;64.90;95231.00;5092194;28;20469;-73
2022/06/16 00:21:03;;;;;;;10.45;5.85;;;;;;;15.58;64.83;95222.94;5113430;28;20031;-73
2022/06/16 00:23:28;;;;;;;10.48;6.97;;;;;;;15.62;64.42;95232.13;5113169;28;20031;-73
2022/06/16 00:25:54;;;;;;;11.32;6.07;;;;;;;15.65;64.87;95231.81;5096325;28;20039;-73
2022/06/16 00:28:19;;;;;;;7.00;5.35;;;;;;;15.67;64.69;95229.06;5112977;28;20031;-73
2022/06/16 00:30:44;;;;;;;7.50;5.38;;;;;;;15.65;64.97;95229.19;5113238;28;20494;-73
2022/06/16 00:33:10;;;;;;;7.20;5.45;;;;;;;15.63;64.90;95233.78;5114314;28;20027;-73
2022/06/16 00:35:35;;;;;;;8.55;5.18;;;;;;;15.63;64.84;95232.97;5114866;28;20035;-73
2022/06/16 00:38:01;;;;;;;5.63;4.65;;;;;;;15.65;64.97;95231.81;5078907;28;20404;-73
2022/06/16 00:40:26;;;;;;;6.82;4.40;;;;;;;15.56;65.40;95237.94;5096035;28;20028;-73
2022/06/16 00:42:52;;;;;;;4.60;4.20;;;;;;;15.50;65.26;95237.72;5096174;28;20032;-73
2022/06/16 00:45:42;;;;;;;5.63;4.30;;;;;;;15.47;65.53;95231.00;5114604;28;20031;-73
2022/06/16 00:48:12;;;;;;;5.57;4.90;;;;;;;15.46;66.30;95231.13;5112513;28;20532;-73
2022/06/16 00:50:39;;;;;;;6.97;4.75;;;;;;;15.35;67.01;95233.00;5114517;28;20039;-73
2022/06/16 00:53:04;;;;;;;5.60;4.78;;;;;;;15.34;67.12;95235.75;5095511;28;20465;-73
2022/06/16 00:55:30;;;;;;;6.05;4.55;;;;;;;15.24;66.91;95227.94;5112868;28;20035;-73
2022/06/16 00:57:55;;;;;;;5.78;4.95;;;;;;;15.28;66.90;95233.72;5112680;28;20542;-73
2022/06/16 01:02:52;;;;;;;7.90;4.72;;;;;;;15.24;67.23;95224.47;5095934;28;20039;-73
2022/06/16 01:05:18;;;;;;;6.50;4.72;;;;;;;15.20;67.11;95221.34;5112790;28;20535;-73
2022/06/16 01:07:44;;;;;;;6.00;4.90;;;;;;;15.16;67.07;95217.38;5095569;28;20447;-73
2022/06/16 01:10:10;;;;;;;6.55;4.97;;;;;;;15.19;67.04;95223.16;5095344;28;20443;-73
2022/06/16 01:16:12;;;;;;;5.38;4.88;;;;;;;15.18;67.51;95215.44;5113855;28;20062;-73
2022/06/16 01:18:41;;;;;;;5.68;4.97;;;;;;;15.20;67.74;95213.50;5110946;28;20478;-73
2022/06/16 01:21:12;;;;;;;6.13;5.20;;;;;;;15.21;68.64;95223.00;5113566;28;20024;-73
2022/06/16 01:23:43;;;;;;;8.00;5.53;;;;;;;15.16;68.77;95218.19;5113288;28;20249;-73
2022/06/16 01:26:33;;;;;;;6.80;5.35;;;;;;;15.11;69.17;95219.59;5113486;28;20463;-73
2022/06/16 01:29:08;;;;;;;9.50;5.57;;;;;;;15.01;69.49;95224.88;5112860;28;20038;-73
2022/06/16 01:31:45;;;;;;;7.05;5.70;;;;;;;15.06;69.55;95221.81;5111650;28;20046;-73
2022/06/16 01:34:33;;;;;;;6.60;5.60;;;;;;;15.10;69.68;95213.56;5113400;28;20509;-73
2022/06/16 01:37:15;;;;;;;7.55;5.60;;;;;;;15.08;69.97;95215.50;5112232;28;20114;-73
2022/06/16 01:39:45;;;;;;;8.50;5.70;;;;;;;15.03;69.92;95217.72;5096748;28;20028;-73
2022/06/16 01:42:17;;;;;;;6.63;6.00;;;;;;;14.94;70.49;95206.31;5111995;28;20034;-73
2022/06/16 01:44:55;;;;;;;9.05;5.55;;;;;;;15.03;70.55;95209.84;5111870;28;20051;-73
2022/06/16 01:47:21;;;;;;;7.68;5.65;;;;;;;14.95;70.67;95183.59;5112542;28;20107;-73
2022/06/16 01:49:49;;;;;;;7.20;5.55;;;;;;;15.15;70.75;95202.63;5110634;28;20111;-73
2022/06/16 01:52:18;;;;;;;6.05;5.45;;;;;;;15.21;71.16;95204.69;5094368;28;20059;-73
2022/06/16 01:54:47;;;;;;;6.60;5.93;;;;;;;15.11;71.49;95207.34;5094935;28;20035;-73
2022/06/16 01:57:18;;;;;;;8.20;6.13;;;;;;;15.00;71.17;95189.22;5094863;28;20114;-74
2022/06/16 01:59:52;;;;;;;8.40;6.63;;;;;;;14.98;71.36;95194.59;5094907;28;20047;-73
2022/06/16 02:02:18;;;;;;;7.35;6.13;;;;;;;15.03;71.38;95199.41;5095129;28;20031;-73
2022/06/16 02:05:07;;;;;;;6.55;5.95;;;;;;;15.07;71.38;95198.16;5094651;28;20039;-73
2022/06/16 02:07:35;;;;;;;6.43;5.72;;;;;;;15.08;71.26;95191.13;5110988;28;20577;-73
2022/06/16 02:10:15;;;;;;;6.22;5.63;;;;;;;15.14;71.22;95193.97;5094722;28;20047;-73
2022/06/16 02:12:56;;;;;;;7.00;6.33;;;;;;;15.12;71.31;95200.31;5095908;28;20163;-73
2022/06/16 02:15:33;;;;;;;9.68;6.10;;;;;;;15.08;71.58;95197.16;5111619;28;20039;-73
2022/06/16 02:17:59;;;;;;;6.70;6.00;;;;;;;15.09;71.73;95203.22;5090303;28;20422;-73
2022/06/16 02:20:25;;;;;;;7.40;6.43;;;;;;;15.08;71.67;95202.41;5090963;28;20058;-73
2022/06/16 02:22:51;;;;;;;7.72;6.97;;;;;;;14.92;72.05;95197.78;5091283;28;20027;-73
2022/06/16 02:25:17;;;;;;;7.30;6.38;;;;;;;15.00;72.21;95212.75;5090871;28;20511;-73
2022/06/16 02:27:42;;;;;;;7.57;6.30;;;;;;;15.06;72.37;95200.91;5073902;28;20028;-73
2022/06/16 02:30:08;;;;;;;6.97;6.28;;;;;;;15.05;72.53;95199.25;5109688;28;20074;-73
2022/06/16 02:32:49;;;;;;;8.23;6.68;;;;;;;15.07;72.76;95206.00;5110919;28;20039;-73
2022/06/16 02:35:37;;;;;;;;;;;;;;;15.10;72.60;95208.31;5111610;28;20035;-73
2022/06/16 02:38:09;;;;;;;7.30;6.60;;;;;;;15.11;72.77;95215.19;5108652;28;19916;-73
2022/06/16 02:40:49;;;;;;;10.60;6.72;;;;;;;15.14;72.80;95221.94;5112469;27;20084;-73
2022/06/16 02:43:18;;;;;;;7.63;6.82;;;;;;;15.17;72.84;95227.69;5111393;28;20037;-73
2022/06/16 02:46:07;;;;;;;7.72;6.85;;;;;;;15.13;72.76;95208.03;5110343;28;20028;-73
2022/06/16 02:49:05;;;;;;;8.55;7.05;;;;;;;15.27;72.53;95224.22;5095985;28;20404;-74
2022/06/16 02:52:00;;;;;;;11.23;7.63;;;;;;;15.15;72.50;95221.78;5103377;28;20042;-73
2022/06/16 02:54:38;;;;;;;7.85;7.05;;;;;;;15.13;72.52;95228.97;5079995;28;20044;-73
2022/06/16 02:57:14;;;;;;;8.63;6.68;;;;;;;15.11;72.47;95220.44;5074599;28;20024;-73
2022/06/16 02:59:56;;;;;;;7.90;7.10;;;;;;;15.13;72.79;95228.16;5102390;28;20458;-73
2022/06/16 03:02:22;;;;;;;8.45;7.60;;;;;;;15.17;72.70;95235.53;5095221;28;20070;-73
2022/06/16 03:04:53;;;;;;;7.95;7.03;;;;;;;15.19;73.17;95236.22;5110511;28;20031;-73
2022/06/16 03:07:19;;;;;;;8.75;7.15;;;;;;;15.14;72.89;95233.22;5110251;28;20028;-73
2022/06/16 03:09:44;;;;;;;7.95;6.50;;;;;;;15.22;72.34;95237.72;5111432;28;20168;-73
2022/06/16 03:12:10;;;;;;;8.15;7.35;;;;;;;15.14;72.52;95235.84;5093260;28;20028;-73
2022/06/16 03:14:36;;;;;;;11.60;7.07;;;;;;;15.07;72.64;95240.00;5111680;28;20104;-73
2022/06/16 03:17:02;;;;;;;8.52;6.97;;;;;;;15.10;73.01;95234.50;5108549;28;20050;-73
2022/06/16 03:19:28;;;;;;;7.78;6.97;;;;;;;15.13;73.37;95226.34;5089772;28;20032;-73
2022/06/16 03:21:54;;;;;;;8.15;7.22;;;;;;;15.18;72.71;95225.91;5089878;28;20050;-73
2022/06/16 03:24:20;;;;;;;9.57;7.25;;;;;;;15.28;72.67;95226.69;5109085;28;20173;-73
2022/06/16 03:26:45;;;;;;;9.65;7.15;;;;;;;15.30;72.76;95219.50;5109954;28;20451;-73
2022/06/16 03:29:11;;;;;;;7.75;6.93;;;;;;;15.31;72.99;95225.56;5109212;28;20043;-73
2022/06/16 03:31:36;;;;;;;7.75;6.95;;;;;;;15.31;72.70;95228.19;5111276;28;20038;-73
2022/06/16 03:50:41;;;;;;;12.38;9.75;;;;;;;16.18;70.04;95224.16;5148505;27;20924;-71
2022/06/16 03:53:07;;;;;;;10.27;9.27;;;;;;;16.28;69.91;95222.28;5146809;27;20055;-71
2022/06/16 03:55:32;;;;;;;13.52;9.90;;;;;;;16.38;69.79;95215.16;5148199;27;20409;-72
2022/06/16 03:57:58;;;;;;;12.38;10.35;;;;;;;16.44;70.09;95221.59;5148667;27;20015;-72
2022/06/16 04:00:24;;;;;;;9.68;8.32;;;;;;;16.46;69.31;95222.25;5148925;27;20034;-72
2022/06/16 04:03:59;;;;;;;9.98;8.43;;;;;;;16.45;69.05;95220.59;5129827;27;20541;-72
2022/06/16 04:05:35;;;;;;;8.77;7.25;;;;;;;16.63;68.21;95228.41;5147266;27;20110;-72
2022/06/16 04:08:01;;;;;;;8.52;7.72;;;;;;;16.71;67.83;95234.53;5117432;28;20043;-71
2022/06/16 04:10:26;;;;;;;7.55;6.78;;;;;;;16.98;67.27;95233.59;5126718;27;20408;-72
2022/06/16 04:12:52;;;;;;;9.25;7.35;;;;;;;17.18;66.16;95228.09;5109745;28;20027;-72
2022/06/16 04:15:17;;;;;;;8.35;7.43;;;;;;;17.45;65.47;95228.88;5128297;27;20034;-72
2022/06/16 04:17:43;;;;;;;14.23;7.30;;;;;;;17.69;64.22;95215.81;5127275;27;20043;-72
2022/06/16 04:20:14;;;;;;;9.80;7.35;;;;;;;18.09;63.40;95216.88;5126411;28;20039;-72
2022/06/16 04:22:40;;;;;;;7.85;6.88;;;;;;;18.54;60.76;95226.06;5134200;27;20499;-72
2022/06/16 04:25:07;;;;;;;9.52;7.38;;;;;;;18.86;60.16;95227.88;5147625;27;20031;-72
2022/06/16 04:27:33;;;;;;;9.98;6.90;;;;;;;19.25;58.71;95224.47;5150821;27;20410;-72
2022/06/16 04:29:58;;;;;;;9.27;7.10;;;;;;;19.43;57.65;95225.03;5167682;27;20039;-72
2022/06/16 04:32:24;;;;;;;11.45;7.97;;;;;;;19.76;56.50;95222.25;5166745;27;20377;-72
2022/06/16 04:34:49;;;;;;;7.85;7.05;;;;;;;20.14;55.55;95226.78;5146965;27;20035;-72
2022/06/16 04:37:15;;;;;;;7.65;6.88;;;;;;;20.37;54.97;95224.16;5136670;27;20042;-72
2022/06/16 04:39:40;;;;;;;9.48;7.20;;;;;;;20.58;54.07;95224.31;5109877;28;20058;-72
2022/06/16 04:42:06;;;;;;;10.80;7.30;;;;;;;20.63;53.69;95218.50;5107021;28;20027;-72
2022/06/16 04:44:32;;;;;;;8.98;7.25;;;;;;;20.51;54.53;95221.56;5138241;27;20027;-72
2022/06/16 04:46:58;;;;;;;7.60;6.90;;;;;;;20.29;55.72;95219.75;5144474;27;20038;-72
2022/06/16 04:49:23;;;;;;;9.90;6.95;;;;;;;20.34;54.90;95220.06;5125952;27;20054;-72
2022/06/16 04:51:49;;;;;;;9.98;7.05;;;;;;;20.26;55.05;95220.94;5113316;27;20031;-73
2022/06/16 04:54:15;;;;;;;11.07;7.05;;;;;;;20.15;55.41;95220.53;5111726;27;20061;-72
2022/06/16 04:56:40;;;;;;;8.93;7.40;;;;;;;20.04;56.35;95219.94;5116222;27;20572;-72
2022/06/16 04:59:06;;;;;;;12.45;7.55;;;;;;;20.05;56.92;95226.84;5092811;28;20421;-72
2022/06/16 05:01:31;;;;;;;9.65;7.75;;;;;;;20.07;56.36;95221.41;5080092;28;20040;-72
2022/06/16 05:03:57;;;;;;;11.73;8.15;;;;;;;20.05;56.50;95216.28;5112431;27;20027;-72
2022/06/16 05:06:22;;;;;;;12.98;7.53;;;;;;;20.11;57.04;95224.50;5131396;27;20027;-72
2022/06/16 05:08:48;;;;;;;12.93;8.07;;;;;;;20.10;56.92;95218.41;5130683;27;20431;-72
2022/06/16 05:11:14;;;;;;;8.98;8.00;;;;;;;20.04;57.97;95225.22;5103425;27;20031;-71
2022/06/16 05:13:40;;;;;;;12.63;8.45;;;;;;;20.22;57.52;95222.28;5112920;27;20028;-72
2022/06/16 05:16:05;;;;;;;11.18;8.05;;;;;;;20.21;58.03;95225.09;5106984;27;20027;-72
2022/06/16 05:18:31;;;;;;;9.98;8.57;;;;;;;20.12;57.37;95226.16;5154408;27;20034;-72
2022/06/16 05:21:22;;;;;;;10.85;8.10;;;;;;;20.09;57.55;95222.06;5144766;27;20041;-72
2022/06/16 05:23:48;;;;;;;15.70;8.63;;;;;;;20.21;57.85;95225.91;5130800;27;20511;-72
2022/06/16 05:26:13;;;;;;;11.95;8.90;;;;;;;20.27;57.38;95219.94;5114847;27;20027;-72
2022/06/16 05:28:39;;;;;;;15.05;9.73;;;;;;;20.29;57.54;95217.13;5131479;27;20654;-72
2022/06/16 05:31:04;;;;;;;13.05;9.10;;;;;;;20.31;57.27;95220.41;5130756;27;20028;-72
2022/06/16 05:33:30;;;;;;;13.52;10.35;;;;;;;20.21;57.69;95236.47;5142966;27;20083;-72
2022/06/16 05:36:00;;;;;;;11.63;10.43;;;;;;;20.19;58.62;95221.81;5135010;27;20031;-72
2022/06/16 05:38:25;;;;;;;15.02;10.40;;;;;;;20.35;58.06;95228.78;5118514;27;20015;-72
2022/06/16 05:41:01;;;;;;;12.38;11.18;;;;;;;20.41;57.48;95226.25;5134539;27;20075;-72
2022/06/16 05:43:28;;;;;;;14.60;10.25;;;;;;;20.41;57.69;95231.53;5137840;27;20023;-72
2022/06/16 05:45:53;;;;;;;16.13;10.27;;;;;;;20.48;57.85;95236.94;5114980;27;20027;-73
2022/06/16 05:48:19;;;;;;;12.23;10.88;;;;;;;20.55;58.48;95237.88;5129359;27;20111;-72
2022/06/16 05:50:44;;;;;;;16.63;11.07;;;;;;;20.66;58.23;95241.91;5111310;28;20024;-72
2022/06/16 05:53:10;;;;;;;13.25;10.95;;;;;;;20.65;58.29;95241.09;5127978;27;20080;-72
2022/06/16 05:55:36;;;;;;;12.52;10.90;;;;;;;20.64;58.46;95235.97;5150176;27;20054;-72
2022/06/16 05:58:04;;;;;;;14.82;11.15;;;;;;;20.71;58.00;95235.09;5132121;27;20023;-72
2022/06/16 06:00:30;;;;;;;13.10;11.63;;;;;;;20.67;58.54;95239.09;5131012;27;20111;-72
2022/06/16 06:02:59;;;;;;;14.85;10.75;;;;;;;20.63;58.54;95231.72;5129320;27;20031;-72
2022/06/16 06:05:25;;;;;;;13.27;11.45;;;;;;;20.65;58.82;95235.00;5115286;27;20084;-72
2022/06/16 06:18:46;;;;;;;12.73;10.93;;;;;;;20.96;58.79;95227.75;5111802;28;20097;-72
2022/06/16 06:21:12;;;;;;;14.88;12.80;;;;;;;21.01;58.61;95232.50;5077365;28;20036;-72
2022/06/16 06:23:37;;;;;;;13.35;11.85;;;;;;;21.06;58.79;95234.56;5094387;28;20028;-72
2022/06/16 06:26:03;;;;;;;13.68;12.20;;;;;;;21.06;59.32;95226.66;5112422;28;20038;-72
2022/06/16 06:28:28;;;;;;;14.90;12.75;;;;;;;21.07;59.09;95230.94;5111109;28;20378;-72
2022/06/16 06:30:53;;;;;;;14.43;12.18;;;;;;;21.00;58.87;95224.75;5094169;28;20024;-72
2022/06/16 06:33:19;;;;;;;13.90;12.45;;;;;;;21.09;59.51;95235.06;5110925;28;20051;-72
2022/06/16 06:35:44;;;;;;;16.15;13.13;;;;;;;21.10;59.02;95241.97;5111090;28;20027;-72
2022/06/16 06:38:10;;;;;;;14.02;12.57;;;;;;;21.05;58.67;95228.47;5112035;28;20495;-72
2022/06/16 06:40:36;;;;;;;14.30;12.82;;;;;;;21.10;59.09;95239.31;5112186;28;20028;-72
2022/06/16 06:43:02;;;;;;;16.52;13.00;;;;;;;21.13;59.74;95232.88;5112046;28;20019;-72
2022/06/16 06:45:27;;;;;;;16.48;12.65;;;;;;;21.21;59.62;95235.41;5110775;28;20049;-72
2022/06/16 06:47:53;;;;;;;16.60;13.40;;;;;;;21.30;59.42;95241.41;5093775;28;20027;-72
2022/06/16 06:50:27;;;;;;;15.98;13.68;;;;;;;21.36;58.69;95235.41;5110721;28;20048;-72
2022/06/16 06:52:53;;;;;;;15.48;13.95;;;;;;;21.33;58.12;95236.59;5093947;28;20119;-72
2022/06/16 06:55:18;;;;;;;16.33;14.63;;;;;;;21.06;59.15;95229.28;5110653;28;20055;-72
2022/06/16 06:57:44;;;;;;;16.85;14.90;;;;;;;21.06;60.32;95234.56;5093718;28;20031;-72
2022/06/16 07:00:11;;;;;;;17.67;14.65;;;;;;;21.13;59.47;95232.88;5093677;28;20092;-72
2022/06/16 07:02:36;;;;;;;17.73;14.52;;;;;;;21.26;59.14;95229.59;5110831;28;20147;-72
2022/06/16 07:05:02;;;;;;;19.25;14.10;;;;;;;21.33;58.50;95231.31;5110356;28;20056;-72
2022/06/16 07:07:28;;;;;;;17.40;14.18;;;;;;;21.43;58.40;95223.13;5111707;28;20023;-72
2022/06/16 07:09:53;;;;;;;16.48;14.65;;;;;;;21.57;57.91;95226.75;5093664;28;20039;-72
2022/06/16 07:12:19;;;;;;;19.00;14.82;;;;;;;21.70;57.54;95216.31;5110398;28;20024;-72
2022/06/16 07:14:45;;;;;;;16.95;13.88;;;;;;;21.85;55.68;95208.38;5093314;28;20036;-72
2022/06/16 07:17:12;;;;;;;16.25;14.65;;;;;;;21.96;55.52;95223.75;5110323;28;20020;-72
2022/06/16 07:19:37;;;;;;;17.08;15.27;;;;;;;21.97;56.33;95219.28;5110334;28;20382;-72
2022/06/16 07:22:04;;;;;;;16.33;14.73;;;;;;;22.07;55.88;95219.78;5111438;28;20031;-73
2022/06/16 07:24:29;;;;;;;15.75;14.25;;;;;;;22.08;55.38;95216.13;5111800;28;20063;-72
2022/06/16 07:26:55;;;;;;;16.15;14.45;;;;;;;21.99;54.29;95217.25;5111467;28;20030;-72
2022/06/16 07:29:20;;;;;;;16.20;14.50;;;;;;;21.88;55.12;95215.13;5111675;28;20044;-72
2022/06/16 07:31:45;;;;;;;17.92;16.13;;;;;;;21.68;56.23;95213.06;5110177;28;20028;-72
2022/06/16 07:34:12;;;;;;;17.02;14.93;;;;;;;21.60;55.92;95205.25;5111208;28;20036;-72
2022/06/16 07:36:37;;;;;;;18.23;15.70;;;;;;;21.65;56.83;95213.44;5110133;28;20039;-72
2022/06/16 07:39:04;;;;;;;16.27;14.48;;;;;;;21.55;56.13;95213.72;5111392;28;20100;-72
2022/06/16 07:41:32;;;;;;;19.25;14.75;;;;;;;21.48;55.77;95210.19;5076329;28;20463;-72
2022/06/16 07:44:02;;;;;;;17.33;15.52;;;;;;;21.45;56.09;95215.00;5110228;28;20092;-72
2022/06/16 07:46:28;;;;;;;16.45;14.35;;;;;;;21.50;55.48;95210.81;5110239;28;20288;-72
2022/06/16 07:48:53;;;;;;;16.23;14.63;;;;;;;21.54;55.28;95212.09;5109788;28;20052;-72
2022/06/16 07:51:19;;;;;;;16.80;15.15;;;;;;;21.61;54.79;95201.59;5111192;28;20031;-72
2022/06/16 07:53:45;;;;;;;16.23;14.52;;;;;;;21.70;54.64;95195.19;5076208;28;20122;-72
2022/06/16 07:56:10;;;;;;;16.58;14.88;;;;;;;21.89;54.40;95203.53;5111223;28;20081;-73
2022/06/16 07:58:36;;;;;;;16.48;14.75;;;;;;;22.07;53.76;95212.66;5110002;28;20488;-72
2022/06/16 08:01:04;;;;;;;16.33;14.52;;;;;;;22.30;51.93;95201.91;5092924;28;20028;-72
2022/06/16 08:03:29;;;;;;;17.52;14.63;;;;;;;22.40;51.69;95206.06;5093147;28;20032;-72
2022/06/16 08:05:56;;;;;;;24.73;13.65;;;;;;;22.48;51.50;95200.63;5109901;28;20029;-72
2022/06/16 08:08:23;;;;;;;15.15;13.65;;;;;;;22.62;51.64;95209.50;5092832;28;20040;-72
2022/06/16 08:10:51;;;;;;;13.10;11.90;;;;;;;22.78;49.83;95209.22;5109791;28;20023;-72
2022/06/16 08:13:17;;;;;;;16.35;14.65;;;;;;;22.82;51.44;95204.38;5110965;28;20114;-72
2022/06/16 08:15:45;;;;;;;15.35;13.90;;;;;;;23.00;50.56;95210.00;5092685;28;20111;-72
2022/06/16 08:18:14;;;;;;;14.50;13.10;;;;;;;23.14;50.63;95205.59;5109908;28;20055;-73
2022/06/16 08:20:41;;;;;;;14.27;12.88;;;;;;;23.12;50.11;95202.31;5109735;28;20028;-72
2022/06/16 08:23:09;;;;;;;15.63;13.43;;;;;;;23.25;49.41;95206.91;5092769;28;20039;-72
2022/06/16 08:25:35;;;;;;;12.73;11.50;;;;;;;23.31;47.99;95216.69;5110838;28;20062;-72
2022/06/16 08:28:02;;;;;;;16.45;12.68;;;;;;;23.29;47.83;95221.38;5113543;28;20055;-72
2022/06/16 08:30:28;;;;;;;14.93;13.50;;;;;;;23.37;49.53;95221.22;5113460;28;20031;-72
2022/06/16 08:32:53;;;;;;;14.73;13.30;;;;;;;23.64;48.37;95219.50;5113398;28;20023;-72
2022/06/16 08:35:20;;;;;;;15.07;13.75;;;;;;;23.75;48.25;95226.09;5113369;28;20171;-72
2022/06/16 08:37:45;;;;;;;15.38;13.88;;;;;;;23.83;47.45;95212.66;5113373;28;20032;-72
2022/06/16 08:40:11;;;;;;;14.38;13.07;;;;;;;23.91;47.35;95209.84;5096020;28;20059;-72
2022/06/16 08:42:51;;;;;;;16.00;14.50;;;;;;;24.04;46.96;95203.72;5096324;28;20077;-72
2022/06/16 08:45:22;;;;;;;14.87;13.50;;;;;;;24.24;46.21;95209.91;5113482;28;20307;-72
2022/06/16 08:48:15;;;;;;;15.68;14.18;;;;;;;24.24;46.64;95209.91;5114212;28;20489;-73
2022/06/16 08:51:04;;;;;;;14.57;13.07;;;;;;;24.41;46.44;95210.34;5112950;28;20142;-73
2022/06/16 08:53:59;;;;;;;15.23;13.65;;;;;;;24.57;45.69;95206.47;5103181;28;20053;-72
2022/06/16 08:56:48;;;;;;;13.32;12.13;;;;;;;24.60;45.16;95207.91;5113257;28;20027;-72
2022/06/16 08:59:47;;;;;;;13.32;12.13;;;;;;;24.48;47.18;95205.06;5114328;28;20043;-72
2022/06/16 09:02:19;;;;;;;12.73;11.48;;;;;;;24.50;42.84;95198.50;5098481;28;20028;-72
2022/06/16 09:05:08;;;;;;;14.85;13.55;;;;;;;24.57;42.41;95208.31;5114494;28;20500;-72
2022/06/16 09:07:33;;;;;;;13.98;12.68;;;;;;;24.63;43.20;95202.22;5112784;28;20032;-72
2022/06/16 09:10:14;;;;;;;13.77;12.40;;;;;;;24.68;43.22;95200.56;5114421;28;20034;-72
2022/06/16 09:12:57;;;;;;;14.25;12.95;;;;;;;24.75;43.83;95197.91;5113936;28;20031;-72
2022/06/16 09:15:35;;;;;;;15.75;14.05;;;;;;;24.76;44.28;95196.88;5114071;28;20036;-72
2022/06/16 09:18:20;;;;;;;14.98;13.18;;;;;;;24.78;43.09;95194.81;5112649;28;20095;-72
2022/06/16 09:20:49;;;;;;;15.45;13.90;;;;;;;24.79;42.99;95195.63;5112551;28;20023;-72
2022/06/16 09:23:23;;;;;;;14.90;13.50;;;;;;;24.79;42.93;95193.00;5112412;28;20077;-72
2022/06/16 09:26:10;;;;;;;14.55;13.15;;;;;;;24.77;42.90;95198.53;5113900;28;20051;-72
2022/06/16 09:28:57;;;;;;;12.40;11.25;;;;;;;24.73;41.30;95184.81;5114012;28;20047;-72
2022/06/16 09:31:57;;;;;;;13.30;12.10;;;;;;;24.67;42.21;95177.69;5112543;28;20027;-72
2022/06/16 09:34:30;;;;;;;13.10;11.73;;;;;;;24.80;43.89;95190.13;5094145;28;20055;-72
2022/06/16 09:37:00;;;;;;;13.65;11.30;;;;;;;24.66;40.25;95181.38;5112117;28;20038;-72
2022/06/16 09:39:29;;;;;;;11.15;10.05;;;;;;;24.48;41.75;95183.81;5095598;28;20035;-72
2022/06/16 09:42:37;;;;;;;11.00;9.90;;;;;;;24.34;40.41;95179.50;5112214;28;20042;-72
2022/06/16 09:45:39;;;;;;;11.98;10.75;;;;;;;24.24;42.26;95182.56;5096874;28;20027;-72
2022/06/16 09:48:13;;;;;;;12.82;10.95;;;;;;;24.24;42.81;95178.06;5113451;28;20035;-72
2022/06/16 09:50:59;;;;;;;12.13;11.02;;;;;;;24.28;42.37;95175.81;5112951;28;20058;-72
2022/06/16 09:53:40;;;;;;;12.45;11.15;;;;;;;24.39;41.88;95169.91;5111850;28;20038;-72
2022/06/16 09:56:34;;;;;;;11.82;10.73;;;;;;;24.45;42.39;95173.59;5111816;28;20023;-72
2022/06/16 09:59:08;;;;;;;10.20;9.30;;;;;;;24.63;40.33;95173.00;5111682;28;20130;-72
2022/06/16 10:01:38;;;;;;;11.98;10.88;;;;;;;24.65;40.92;95174.41;5095022;28;20036;-72
2022/06/16 10:04:05;;;;;;;12.90;10.88;;;;;;;24.71;41.65;95170.09;5111855;28;20034;-72
2022/06/16 10:06:48;;;;;;;11.95;10.90;;;;;;;24.79;42.00;95164.56;5111620;28;20442;-72
2022/06/16 10:09:23;;;;;;;10.93;9.82;;;;;;;24.85;39.45;95169.09;5111826;28;20131;-72
2022/06/16 10:12:13;;;;;;;9.27;8.38;;;;;;;24.66;38.22;95164.63;5112763;28;20035;-72
2022/06/16 10:15:08;;;;;;;9.45;8.55;;;;;;;24.52;38.92;95169.94;5113058;28;20050;-72
2022/06/16 10:17:34;;;;;;;10.75;8.65;;;;;;;24.50;39.83;95155.22;5110198;28;20768;-72
2022/06/16 10:20:00;;;;;;;9.05;8.25;;;;;;;24.65;38.96;95155.81;5111306;28;20485;-72
2022/06/16 10:22:26;;;;;;;8.98;8.18;;;;;;;24.62;38.18;95148.25;5112482;28;20039;-73
2022/06/16 10:25:07;;;;;;;10.30;9.30;;;;;;;24.73;38.94;95154.78;5077599;28;20024;-72
2022/06/16 10:27:42;;;;;;;9.32;8.43;;;;;;;24.81;39.10;95154.56;5112417;28;20175;-73
2022/06/16 10:30:09;;;;;;;9.85;8.75;;;;;;;24.88;38.63;95142.09;5111335;28;20031;-72
2022/06/16 10:32:39;;;;;;;9.65;8.73;;;;;;;25.00;38.88;95152.09;5110941;28;20559;-72
2022/06/16 10:35:05;;;;;;;9.60;8.80;;;;;;;25.07;39.17;95144.91;5111165;28;20540;-72
2022/06/16 10:37:31;;;;;;;9.68;8.75;;;;;;;25.10;38.60;95144.47;5112502;28;20115;-73
2022/06/16 10:40:05;;;;;;;9.90;8.90;;;;;;;25.24;40.15;95148.78;5094143;28;20036;-72
2022/06/16 10:42:40;;;;;;;9.13;8.23;;;;;;;25.19;37.38;95148.59;5112180;28;20033;-72
2022/06/16 10:45:05;;;;;;;9.57;8.70;;;;;;;25.19;38.82;95153.91;5094257;28;20050;-72
2022/06/16 10:47:56;;;;;;;9.65;8.73;;;;;;;25.04;39.54;95148.78;5111855;28;20485;-72
2022/06/16 10:50:37;;;;;;;;;;;;;;;25.04;37.24;95140.00;5086437;28;20051;-72
2022/06/16 10:53:18;;;;;;;9.48;8.63;;;;;;;25.06;38.38;95132.66;5111907;28;19918;-72
2022/06/16 10:55:44;;;;;;;9.20;8.38;;;;;;;25.09;38.34;95126.91;5111944;28;20035;-72
2022/06/16 10:58:25;;;;;;;9.32;8.43;;;;;;;25.16;39.51;95133.06;5093674;28;20107;-72
2022/06/16 11:01:06;;;;;;;;;;;;;;;25.09;39.22;95137.53;5111059;28;20035;-73
2022/06/16 11:03:40;;;;;;;11.90;9.20;;;;;;;25.06;40.70;95138.78;5110551;28;19916;-72
2022/06/16 11:06:07;;;;;;;11.32;10.15;;;;;;;25.07;39.45;95107.69;5094166;28;20023;-72
2022/06/16 11:08:36;;;;;;;10.48;9.38;;;;;;;25.24;39.25;95129.34;5110561;28;20123;-72
2022/06/16 11:11:02;;;;;;;9.43;8.43;;;;;;;25.16;38.50;95115.28;5110506;28;20031;-72
2022/06/16 11:13:44;;;;;;;12.95;8.50;;;;;;;25.18;39.19;95120.34;5093450;28;20060;-72
2022/06/16 11:16:25;;;;;;;9.60;8.75;;;;;;;25.11;39.37;95127.53;5093350;28;20492;-72
2022/06/16 11:18:53;;;;;;;13.88;8.95;;;;;;;25.16;39.72;95128.56;5093587;28;20035;-72
2022/06/16 11:21:28;;;;;;;10.00;8.95;;;;;;;25.28;39.35;95123.41;5093709;28;20074;-72
2022/06/16 11:23:55;;;;;;;9.55;8.75;;;;;;;25.31;38.92;95115.00;5094098;28;20031;-72
2022/06/16 11:26:27;;;;;;;9.68;8.77;;;;;;;25.27;39.04;95118.28;5093387;28;20032;-72
2022/06/16 11:29:11;;;;;;;10.02;9.10;;;;;;;25.36;38.33;95112.53;5094101;28;20023;-72
2022/06/16 11:31:44;;;;;;;9.68;8.55;;;;;;;25.32;38.45;95111.31;5110389;28;20038;-72
2022/06/16 11:34:14;;;;;;;10.82;9.73;;;;;;;25.40;38.43;95113.72;5110230;28;20048;-72
2022/06/16 11:37:00;;;;;;;10.35;8.93;;;;;;;25.45;38.76;95113.09;5110132;28;20035;-72
2022/06/16 11:40:04;;;;;;;9.40;8.60;;;;;;;25.41;38.14;95115.38;5111585;28;20409;-72
2022/06/16 11:42:51;;;;;;;9.75;8.85;;;;;;;25.46;38.42;95111.25;5109967;28;20123;-72
2022/06/16 11:45:16;;;;;;;10.27;9.23;;;;;;;25.48;39.02;95106.53;5110783;28;20412;-72
2022/06/16 11:47:49;;;;;;;10.05;9.15;;;;;;;25.21;41.34;95109.31;5111273;28;20028;-72
2022/06/16 11:50:27;;;;;;;10.05;9.23;;;;;;;25.01;40.02;95113.84;5109871;28;20490;-72
2022/06/16 11:53:11;;;;;;;10.50;9.50;;;;;;;24.91;40.00;95115.13;5109833;28;20620;-72
2022/06/16 11:55:59;;;;;;;10.88;9.98;;;;;;;24.89;39.66;95111.84;5111180;28;20036;-72
2022/06/16 11:58:31;;;;;;;11.00;10.10;;;;;;;24.93;41.15;95109.56;5109511;28;20047;-72
2022/06/16 12:01:16;;;;;;;9.80;8.98;;;;;;;24.87;40.53;95108.56;5111833;28;20024;-72
2022/06/16 12:03:41;;;;;;;10.88;9.73;;;;;;;24.90;38.45;95102.84;5114034;28;20028;-72
2022/06/16 12:06:16;;;;;;;10.45;9.40;;;;;;;24.99;38.72;95095.47;5115130;28;20027;-72
2022/06/16 12:09:00;;;;;;;10.40;9.40;;;;;;;25.08;39.88;95098.72;5113886;28;20035;-72
2022/06/16 12:11:25;;;;;;;10.27;9.27;;;;;;;25.14;39.78;95089.91;5115083;28;20077;-72
2022/06/16 12:13:56;;;;;;;10.45;9.45;;;;;;;25.16;39.13;95091.34;5113736;28;20028;-72
2022/06/16 12:16:25;;;;;;;;;;;;;;;25.11;38.98;95090.31;5114312;28;20046;-72
2022/06/16 12:19:01;;;;;;;11.05;10.10;;;;;;;24.98;39.92;95083.19;5115011;28;19915;-72